Sweet Home, Texas
Current Conditions -  °F | °C
As of 11:35 PM on Saturday 25 Oct 2014 (Local Time) from KT20 Reporting Station
Clear Clear  
Wind Chill: 68°   Ceiling: Unl
Heat Index: 68°   Visibility: 10mi
Dew Point: 60°   Wind: 5mph
Humidity: 76%   Direction: 160°SSE
Pressure: 30.1"   Gusts: NA
Location:  29.35°N, 97.07°W
Report Text: KT20 260435Z AUTO 16004KT 10SM CLR 20/16 A3010 RMK AO2 T02000156
Loading
Personal Weather Stations






























Interactive Weather Map New forecast layout! Learn more

10-Day Weather Forecast

Advertisements
Track Severe Weather on mobile